Time;durP1;ratioP1;P1;durP2;ratioP2;P2;SDS_P1;SDS_P2;PMS_P1;PMS_P2;Temp;Humidity;BMP_temperature;BMP_pressure;BME280_temperature;BME280_humidity;BME280_pressure;Samples;Min_cycle;Max_cycle;Signal;HPM_P1;HPM_P2
2020/12/08 00:01:58;;;;;;;17.53;8.90;;;;;;;-7.30;62.71;101771.38;1672888;83;21404;-87
2020/12/08 00:04:25;;;;;;;14.53;8.87;;;;;;;-7.28;62.67;101757.94;1710873;82;21165;-84
2020/12/08 00:06:52;;;;;;;17.20;9.83;;;;;;;-7.30;62.72;101757.58;1699190;82;21194;-85
2020/12/08 00:09:19;;;;;;;18.80;10.30;;;;;;;-7.28;62.65;101757.94;1706786;82;21665;-84
2020/12/08 00:11:50;;;;;;;;;;;;;;;-7.24;62.57;101754.83;1707397;83;21332;-82
2020/12/08 00:14:17;;;;;;;12.93;6.47;;;;;;;-7.19;62.49;101763.80;1671357;84;20239;-88
2020/12/08 00:16:44;;;;;;;15.67;9.23;;;;;;;-7.27;62.45;101749.28;1673839;84;21219;-85
2020/12/08 00:19:11;;;;;;;15.43;8.70;;;;;;;-7.24;62.45;101765.19;1648574;85;21223;-85
2020/12/08 00:21:42;;;;;;;13.10;8.70;;;;;;;-7.25;62.42;101746.21;1656640;85;21192;-85
2020/12/08 00:24:08;;;;;;;15.67;8.80;;;;;;;-7.21;62.40;101759.94;1684711;83;21221;-86
2020/12/08 00:26:40;;;;;;;13.73;9.47;;;;;;;-7.22;62.38;101732.31;1690109;83;21215;-87
2020/12/08 00:29:09;;;;;;;17.63;10.30;;;;;;;-7.20;62.38;101725.34;1698016;84;21202;-85
2020/12/08 00:31:37;;;;;;;18.43;9.60;;;;;;;-7.18;62.37;101722.72;1693015;84;21216;-86
2020/12/08 00:34:05;;;;;;;13.13;8.40;;;;;;;-7.15;62.26;101730.42;1688415;84;22309;-88
2020/12/08 00:36:32;;;;;;;15.47;10.00;;;;;;;-7.14;62.08;101725.20;1657974;84;21145;-85
2020/12/08 00:39:00;;;;;;;14.97;8.27;;;;;;;-7.13;61.94;101727.34;1703878;81;21179;-85
2020/12/08 00:41:28;;;;;;;14.30;8.43;;;;;;;-7.21;62.03;101724.95;1671405;82;21312;-86
2020/12/08 00:43:58;;;;;;;8.73;6.87;;;;;;;-7.22;61.95;101710.28;1693003;84;21360;-87
2020/12/08 00:46:25;;;;;;;11.67;8.07;;;;;;;-7.29;62.16;101713.92;1679089;84;21171;-85
2020/12/08 00:48:53;;;;;;;16.37;9.33;;;;;;;-7.33;62.17;101717.48;1725421;82;21653;-86
2020/12/08 00:51:22;;;;;;;15.10;8.20;;;;;;;-7.36;62.30;101724.06;1725715;81;21183;-86
2020/12/08 00:53:50;;;;;;;11.73;6.50;;;;;;;-7.38;62.24;101716.75;1734219;82;21182;-86
2020/12/08 00:56:18;;;;;;;18.70;8.90;;;;;;;-7.44;62.51;101716.46;1732110;82;21222;-86
2020/12/08 00:58:46;;;;;;;14.97;8.93;;;;;;;-7.46;62.52;101723.42;1698030;83;21208;-85
2020/12/08 01:01:14;;;;;;;11.80;6.87;;;;;;;-7.49;62.64;101718.34;1689885;83;21205;-83
2020/12/08 01:03:41;;;;;;;18.17;9.27;;;;;;;-7.52;62.75;101735.23;1716115;82;21164;-87
2020/12/08 01:06:09;;;;;;;19.73;9.97;;;;;;;-7.52;62.79;101719.70;1689432;83;21683;-86
2020/12/08 01:08:41;;;;;;;14.47;9.20;;;;;;;-7.51;62.79;101715.78;1742073;81;21187;-86
2020/12/08 01:11:08;;;;;;;14.17;8.30;;;;;;;-7.47;62.73;101712.22;1735041;81;21192;-86
2020/12/08 01:13:37;;;;;;;14.93;8.43;;;;;;;-7.44;62.67;101724.23;1730071;82;21335;-87
2020/12/08 01:16:07;;;;;;;14.33;8.80;;;;;;;-7.42;62.63;101700.89;1698877;82;21218;-86
2020/12/08 01:18:34;;;;;;;12.50;7.50;;;;;;;-7.43;62.68;101711.70;1717793;83;21351;-85
2020/12/08 01:21:02;;;;;;;14.50;9.30;;;;;;;-7.44;62.68;101708.27;1700561;83;21184;-85
2020/12/08 01:23:30;;;;;;;13.37;7.90;;;;;;;-7.41;62.64;101707.33;1701856;83;21156;-86
2020/12/08 01:25:57;;;;;;;14.87;8.60;;;;;;;-7.44;62.67;101713.88;1671900;84;21246;-87
2020/12/08 01:28:26;;;;;;;17.13;8.70;;;;;;;-7.41;62.56;101715.09;1715844;83;21827;-86
2020/12/08 01:30:59;;;;;;;15.33;9.07;;;;;;;-7.41;62.56;101711.22;1679205;84;21187;-88
2020/12/08 01:33:27;;;;;;;12.07;7.60;;;;;;;-7.41;62.54;101710.38;1697229;83;21610;-86
2020/12/08 01:35:54;;;;;;;12.47;7.97;;;;;;;-7.43;62.58;101715.59;1693853;83;21355;-86
2020/12/08 01:38:22;;;;;;;16.50;8.97;;;;;;;-7.45;62.63;101712.19;1693601;83;21328;-88
2020/12/08 01:40:55;;;;;;;16.17;8.90;;;;;;;-7.44;62.74;101716.04;1687278;84;21174;-84
2020/12/08 01:43:24;;;;;;;15.53;9.50;;;;;;;-7.42;62.72;101714.71;1669286;83;21340;-86
2020/12/08 01:45:51;;;;;;;15.83;7.83;;;;;;;-7.35;62.56;101711.05;1674335;84;21199;-84
2020/12/08 01:48:19;;;;;;;15.57;8.77;;;;;;;-7.44;62.75;101719.05;1687205;84;21280;-85
2020/12/08 01:50:47;;;;;;;14.90;8.87;;;;;;;-7.43;62.75;101713.00;1647437;85;21365;-84
2020/12/08 01:53:15;;;;;;;19.40;11.37;;;;;;;-7.47;62.94;101704.91;1657799;85;21234;-87
2020/12/08 01:55:44;;;;;;;13.80;8.10;;;;;;;-7.45;62.97;101709.59;1699407;83;21762;-87
2020/12/08 01:58:13;;;;;;;19.30;9.97;;;;;;;-7.53;63.17;101703.77;1641998;86;21750;-86
2020/12/08 02:00:41;;;;;;;18.93;9.57;;;;;;;-7.55;63.25;101707.69;1655919;84;21702;-84
2020/12/08 02:03:09;;;;;;;18.00;10.33;;;;;;;-7.56;63.38;101703.84;1700266;82;21328;-83
2020/12/08 02:05:38;;;;;;;18.30;10.60;;;;;;;-7.54;63.38;101707.23;1647385;84;21174;-85
2020/12/08 02:08:06;;;;;;;16.20;8.97;;;;;;;-7.54;63.46;101710.67;1628978;86;21201;-85
2020/12/08 02:10:34;;;;;;;24.50;9.67;;;;;;;-7.52;63.46;101705.45;1637538;86;21144;-84
2020/12/08 02:13:07;;;;;;;18.97;11.17;;;;;;;-7.50;63.44;101711.45;1650258;85;21198;-87
2020/12/08 02:15:35;;;;;;;16.00;9.97;;;;;;;-7.49;63.55;101706.23;1650510;85;21232;-86
2020/12/08 02:18:02;;;;;;;13.93;8.93;;;;;;;-7.41;63.45;101709.08;1656389;85;21760;-86
2020/12/08 02:20:30;;;;;;;15.43;9.33;;;;;;;-7.37;63.31;101718.47;1648682;84;21211;-88
2020/12/08 02:23:00;;;;;;;17.37;9.10;;;;;;;-7.36;63.25;101719.73;1645466;85;21247;-86
2020/12/08 02:27:00;;;;;;;13.03;6.63;;;;;;;-7.31;63.29;101716.58;1786048;78;22991;-84
2020/12/08 02:29:27;;;;;;;11.93;6.50;;;;;;;-7.38;63.49;101712.44;1796234;80;21329;-85
2020/12/08 02:31:57;;;;;;;15.93;8.37;;;;;;;-7.53;63.90;101703.77;1795312;80;21380;-86
2020/12/08 02:34:24;;;;;;;14.57;8.77;;;;;;;-7.53;63.91;101698.14;1758320;79;21154;-85
2020/12/08 02:36:56;;;;;;;15.43;9.10;;;;;;;-7.81;64.03;101653.97;1745670;82;21125;-84
2020/12/08 02:39:25;;;;;;;15.83;8.33;;;;;;;-7.51;64.11;101705.88;1714241;82;21131;-86
2020/12/08 02:41:55;;;;;;;21.70;10.57;;;;;;;-7.57;64.33;101698.23;1710005;82;21199;-87
2020/12/08 02:44:24;;;;;;;10.13;6.77;;;;;;;-7.56;64.41;101689.14;1714667;83;21205;-86
2020/12/08 02:46:52;;;;;;;14.70;8.07;;;;;;;-7.56;64.50;101690.89;1710080;82;21163;-86
2020/12/08 02:49:22;;;;;;;13.00;8.27;;;;;;;-7.52;64.39;101693.80;1716893;80;21402;-84
2020/12/08 02:51:56;;;;;;;14.37;8.27;;;;;;;-7.45;64.44;101709.59;1703539;81;21219;-85
2020/12/08 02:54:25;;;;;;;13.93;8.43;;;;;;;-7.46;64.37;101703.58;1747658;81;21704;-87
2020/12/08 02:56:53;;;;;;;14.97;8.10;;;;;;;-7.41;64.37;101702.15;1745034;81;21204;-87
2020/12/08 02:59:23;;;;;;;16.90;8.77;;;;;;;-7.41;64.55;101700.85;1741933;81;21198;-86
2020/12/08 03:01:55;;;;;;;18.83;10.23;;;;;;;-7.36;64.54;101698.16;1744834;82;21182;-86
2020/12/08 03:04:24;;;;;;;16.07;8.73;;;;;;;-7.32;64.36;101706.25;1693518;84;21320;-88
2020/12/08 03:06:52;;;;;;;14.33;8.70;;;;;;;-7.29;64.41;101688.02;1737436;82;21225;-86
2020/12/08 03:09:20;;;;;;;16.17;9.63;;;;;;;-7.22;64.29;101686.12;1743440;81;21174;-84
2020/12/08 03:11:48;;;;;;;13.97;9.23;;;;;;;-7.20;64.21;101680.00;1738023;82;21167;-88
2020/12/08 03:14:18;;;;;;;17.40;9.87;;;;;;;-7.17;64.24;101692.89;1741709;82;21177;-89
2020/12/08 03:16:48;;;;;;;19.23;10.60;;;;;;;-7.10;64.13;101711.27;1713342;82;21186;-88
2020/12/08 03:19:17;;;;;;;13.60;7.90;;;;;;;-7.01;64.09;101693.76;1738245;82;21171;-88
2020/12/08 03:21:45;;;;;;;17.77;8.90;;;;;;;-6.98;64.14;101687.20;1734491;81;21190;-88
2020/12/08 03:24:18;;;;;;;15.00;8.87;;;;;;;-6.93;64.05;101686.61;1740086;81;21206;-91
2020/12/08 03:26:47;;;;;;;18.13;9.00;;;;;;;-6.98;64.24;101706.64;1734935;82;22375;-89
2020/12/08 03:29:14;;;;;;;10.53;7.10;;;;;;;-7.06;64.46;101706.86;1733954;81;21633;-90
2020/12/08 03:31:41;;;;;;;12.57;7.23;;;;;;;-7.04;64.59;101690.81;1731157;82;21322;-89
2020/12/08 03:34:09;;;;;;;15.27;8.40;;;;;;;-7.07;64.65;101681.81;1734435;83;21203;-89
2020/12/08 03:36:37;;;;;;;14.73;7.57;;;;;;;-7.08;64.84;101681.43;1733510;79;21510;-88
2020/12/08 03:39:16;;;;;;;;;;;;;;;;;;;;;
2020/12/08 03:42:05;;;;;;;15.27;8.90;;;;;;;-7.07;65.08;101672.29;1788883;78;22997;-87
2020/12/08 03:44:37;;;;;;;18.10;10.07;;;;;;;-7.08;65.00;101665.88;1737590;80;21172;-88
2020/12/08 03:47:06;;;;;;;12.17;8.07;;;;;;;-6.99;64.92;101677.71;1702130;83;21763;-89
2020/12/08 03:49:36;;;;;;;12.40;7.30;;;;;;;-7.00;64.94;101695.02;1706583;82;21136;-92
2020/12/08 03:52:03;;;;;;;13.63;7.73;;;;;;;-7.01;64.94;101684.23;1715472;81;21239;-89
2020/12/08 03:54:32;;;;;;;14.73;7.77;;;;;;;-6.97;64.94;101666.85;1709747;82;21181;-90
2020/12/08 03:57:01;;;;;;;12.43;8.00;;;;;;;-7.02;65.19;101660.97;1704835;83;21195;-90
2020/12/08 03:59:32;;;;;;;11.80;7.53;;;;;;;-7.02;65.19;101681.25;1736184;80;21140;-89
2020/12/08 04:02:03;;;;;;;17.27;9.37;;;;;;;-7.00;65.12;101682.05;1713149;82;21235;-87
2020/12/08 04:04:30;;;;;;;15.67;7.80;;;;;;;-6.98;65.03;101687.20;1731383;83;21307;-89
2020/12/08 04:07:00;;;;;;;18.50;8.93;;;;;;;-7.05;65.33;101681.33;1642672;85;21148;-90
2020/12/08 04:09:28;;;;;;;14.93;10.30;;;;;;;-7.03;65.37;101657.96;1665243;84;21230;-89
2020/12/08 04:11:58;;;;;;;16.67;8.30;;;;;;;-7.01;65.33;101667.38;1680156;84;21705;-90
2020/12/08 04:14:26;;;;;;;15.10;8.77;;;;;;;-7.02;65.46;101664.86;1652337;86;21273;-91
2020/12/08 04:17:06;;;;;;;;;;;;;;;;;;;;;
2020/12/08 04:19:58;;;;;;;13.30;8.10;;;;;;;-6.93;65.10;101670.63;1851826;75;27639;-86
2020/12/08 04:22:28;;;;;;;14.00;9.63;;;;;;;-7.01;65.26;101668.67;1809567;77;21112;-90
2020/12/08 04:24:57;;;;;;;11.80;8.20;;;;;;;-7.00;65.25;101669.55;1801437;78;21152;-90
2020/12/08 04:27:26;;;;;;;14.73;9.27;;;;;;;-7.24;66.08;101663.68;1766942;80;21259;-90
2020/12/08 04:30:00;;;;;;;15.63;10.03;;;;;;;-7.25;66.21;101668.94;1752245;80;21614;-90
2020/12/08 04:32:31;;;;;;;11.40;7.23;;;;;;;-7.21;66.16;101647.64;1731485;80;21191;-90
2020/12/08 04:35:02;;;;;;;11.80;6.40;;;;;;;-7.29;66.56;101672.47;1796506;77;21599;-89
2020/12/08 04:37:34;;;;;;;12.17;7.80;;;;;;;-7.33;66.61;101658.75;1811886;78;21562;-86
2020/12/08 04:40:01;;;;;;;14.90;9.07;;;;;;;-7.27;66.43;101659.90;1766084;79;21178;-89
2020/12/08 04:42:28;;;;;;;14.20;8.53;;;;;;;-7.27;66.52;101668.09;1743985;79;21813;-87
2020/12/08 04:44:56;;;;;;;16.50;8.73;;;;;;;-7.26;66.32;101660.28;1780327;78;21537;-89
2020/12/08 04:47:23;;;;;;;14.47;9.07;;;;;;;-7.31;66.49;101662.59;1803382;78;21281;-89
2020/12/08 04:49:53;;;;;;;17.30;8.43;;;;;;;-7.27;66.17;101665.08;1800116;78;21641;-88
2020/12/08 04:52:20;;;;;;;14.80;9.37;;;;;;;-7.35;66.26;101677.37;1795441;77;21166;-86
2020/12/08 04:54:48;;;;;;;17.27;10.07;;;;;;;-7.42;66.61;101668.09;1815814;77;21254;-94
2020/12/08 04:57:17;;;;;;;14.87;7.17;;;;;;;-7.36;66.46;101663.19;1820673;76;21135;-87
2020/12/08 04:59:44;;;;;;;20.63;10.90;;;;;;;-7.36;66.58;101659.30;1770026;78;21160;-89
2020/12/08 05:02:12;;;;;;;16.77;9.30;;;;;;;-7.30;66.33;101653.49;1810185;77;21157;-87
2020/12/08 05:04:39;;;;;;;16.00;10.30;;;;;;;-7.28;66.12;101667.25;1814063;77;21617;-87
2020/12/08 05:07:08;;;;;;;15.93;9.87;;;;;;;-7.21;65.88;101678.31;1771646;79;21144;-87
2020/12/08 05:09:46;;;;;;;14.27;9.27;;;;;;;-7.25;65.77;101668.48;1716871;81;21536;-87
2020/12/08 05:12:22;;;;;;;19.45;10.23;;;;;;;-7.26;65.70;101673.23;1728985;80;21197;-88
2020/12/08 05:14:49;;;;;;;16.13;9.30;;;;;;;-7.32;65.84;101670.83;1730834;81;21208;-88
2020/12/08 05:17:24;;;;;;;21.27;10.60;;;;;;;-7.35;65.84;101683.00;1729503;80;21346;-87
2020/12/08 05:20:07;;;;;;;15.70;9.67;;;;;;;-7.45;65.92;101672.05;1773227;80;21321;-88
2020/12/08 05:22:35;;;;;;;16.80;9.80;;;;;;;-7.52;66.14;101663.56;1766764;80;21196;-87
2020/12/08 05:25:18;;;;;;;17.10;9.90;;;;;;;-7.46;66.17;101667.31;1766733;80;21404;-87
2020/12/08 05:27:47;;;;;;;14.70;9.40;;;;;;;-7.50;66.26;101672.59;1767796;80;21223;-87
2020/12/08 05:30:17;;;;;;;14.30;9.23;;;;;;;-7.44;66.05;101659.48;1768717;79;21306;-87
2020/12/08 05:32:44;;;;;;;20.73;10.17;;;;;;;-7.44;65.91;101665.95;1777044;80;21245;-89
2020/12/08 05:35:21;;;;;;;17.13;9.60;;;;;;;-7.42;65.76;101653.84;1771040;78;21192;-87
2020/12/08 05:37:55;;;;;;;16.20;10.23;;;;;;;-7.41;65.77;101662.45;1771866;80;21200;-86
2020/12/08 05:40:25;;;;;;;12.43;8.93;;;;;;;-7.39;65.75;101670.58;1762429;78;21150;-87
2020/12/08 05:42:54;;;;;;;16.60;10.27;;;;;;;-7.36;65.49;101664.48;1769441;79;21212;-87
2020/12/08 05:45:23;;;;;;;15.93;9.70;;;;;;;-7.37;65.29;101662.77;1762774;80;21832;-89
2020/12/08 05:47:56;;;;;;;17.60;10.57;;;;;;;-7.38;65.43;101670.13;1765059;79;21309;-86
2020/12/08 05:50:27;;;;;;;15.53;8.93;;;;;;;-7.38;65.42;101674.00;1755509;80;21195;-87
2020/12/08 05:53:00;;;;;;;13.63;8.90;;;;;;;-7.41;65.47;101659.86;1756371;80;21286;-87
2020/12/08 05:55:41;;;;;;;16.23;9.23;;;;;;;-7.40;65.35;101677.96;1756082;80;21658;-88
2020/12/08 05:58:13;;;;;;;15.70;9.90;;;;;;;-7.43;65.63;101674.14;1746303;80;21212;-88
2020/12/08 06:00:40;;;;;;;12.97;8.47;;;;;;;-7.42;65.60;101654.27;1767739;79;21172;-87
2020/12/08 06:03:14;;;;;;;17.27;9.57;;;;;;;-7.41;65.69;101670.22;1774799;79;22644;-89
2020/12/08 06:05:46;;;;;;;15.43;8.00;;;;;;;-7.38;65.76;101669.70;1768679;80;21073;-89
2020/12/08 06:08:22;;;;;;;19.30;9.20;;;;;;;-7.45;65.77;101670.30;1781775;79;21223;-88
2020/12/08 06:10:55;;;;;;;14.60;6.77;;;;;;;-7.54;66.11;101666.64;1744748;80;21194;-88
2020/12/08 06:13:30;;;;;;;16.23;9.20;;;;;;;-7.52;66.10;101677.81;1775070;79;21179;-91
2020/12/08 06:15:59;;;;;;;17.33;10.13;;;;;;;-7.54;66.17;101687.81;1773751;79;21190;-90
2020/12/08 06:18:32;;;;;;;17.73;9.93;;;;;;;-7.56;66.36;101686.55;1770245;79;21156;-88
2020/12/08 06:21:03;;;;;;;17.30;10.23;;;;;;;-7.52;66.46;101670.05;1748511;80;21690;-88
2020/12/08 06:23:31;;;;;;;19.47;10.23;;;;;;;-7.44;66.33;101673.72;1763698;79;21669;-87
2020/12/08 06:26:02;;;;;;;16.17;8.47;;;;;;;-7.36;66.36;101663.19;1767005;80;21309;-86
2020/12/08 06:28:30;;;;;;;15.03;8.47;;;;;;;-7.35;66.38;101681.71;1749707;79;21192;-88
2020/12/08 06:31:06;;;;;;;14.90;8.13;;;;;;;-7.35;66.51;101659.23;1750144;79;21635;-86
2020/12/08 06:33:54;;;;;;;17.97;9.80;;;;;;;-7.48;66.91;101669.52;1757533;81;21417;-87
2020/12/08 06:36:25;;;;;;;15.80;9.60;;;;;;;-7.56;67.53;101671.47;1717813;80;21165;-87
2020/12/08 06:38:59;;;;;;;17.20;11.27;;;;;;;-7.55;67.54;101666.26;1671189;84;21348;-88
2020/12/08 06:41:39;;;;;;;14.57;8.63;;;;;;;-7.55;67.81;101672.73;1699355;82;21618;-89
2020/12/08 06:44:20;;;;;;;14.63;8.93;;;;;;;-7.55;67.75;101671.86;1731949;82;21222;-89
2020/12/08 06:46:54;;;;;;;25.83;12.47;;;;;;;-7.57;67.85;101677.52;1695346;83;22172;-86
2020/12/08 06:49:22;;;;;;;21.33;11.33;;;;;;;-7.52;67.64;101675.67;1742946;80;21149;-85
2020/12/08 06:54:22;;;;;;;16.63;10.30;;;;;;;-7.40;67.52;101675.37;1861007;76;22630;-85
2020/12/08 06:56:50;;;;;;;16.17;10.00;;;;;;;-7.40;67.20;101662.84;1822204;77;21165;-85
2020/12/08 06:59:23;;;;;;;25.07;10.30;;;;;;;-7.41;67.33;101673.66;1813192;77;21179;-85
2020/12/08 07:01:52;;;;;;;18.70;10.63;;;;;;;-7.39;67.13;101680.94;1835927;77;21825;-86
2020/12/08 07:04:20;;;;;;;20.10;10.03;;;;;;;-7.38;66.79;101678.77;1833347;77;21192;-87
2020/12/08 07:06:47;;;;;;;16.10;9.33;;;;;;;-7.41;66.80;101690.49;1785012;77;21095;-84
2020/12/08 07:09:14;;;;;;;19.77;10.47;;;;;;;-7.40;66.64;101690.91;1775536;80;21538;-88
2020/12/08 07:11:40;;;;;;;;;;;;;;;-7.44;66.76;101673.72;1768056;78;21155;-87
2020/12/08 07:14:07;;;;;;;17.97;10.10;;;;;;;-7.37;66.70;101677.86;1756388;80;20278;-88
2020/12/08 07:16:37;;;;;;;17.53;10.17;;;;;;;-7.49;67.15;101671.72;1763892;80;21166;-87
2020/12/08 07:19:06;;;;;;;12.43;7.30;;;;;;;-7.42;66.96;101683.63;1760721;81;21183;-89
2020/12/08 07:21:35;;;;;;;17.70;9.37;;;;;;;-7.45;67.16;101664.27;1756040;80;21337;-87
2020/12/08 07:24:06;;;;;;;14.97;9.43;;;;;;;-7.60;67.26;101673.28;1759652;80;21348;-87
2020/12/08 07:26:33;;;;;;;20.70;10.33;;;;;;;-7.51;67.70;101667.87;1749745;80;21265;-87
2020/12/08 07:29:04;;;;;;;17.13;11.07;;;;;;;-7.42;67.63;101671.09;1703085;82;21175;-88
2020/12/08 07:31:32;;;;;;;22.67;12.57;;;;;;;-7.39;67.24;101675.75;1765871;80;21276;-90
2020/12/08 07:34:17;;;;;;;15.27;9.17;;;;;;;-7.33;66.93;101685.95;1755066;81;21658;-90
2020/12/08 07:36:55;;;;;;;16.47;10.57;;;;;;;-7.33;66.25;101675.59;1741058;80;21094;-93
2020/12/08 07:39:49;;;;;;;;;;;;;;;-7.33;66.26;101695.02;1719005;81;21290;-92
2020/12/08 07:42:33;;;;;;;17.40;10.70;;;;;;;-7.33;65.89;101707.13;1731534;81;20268;-93
2020/12/08 07:45:59;;;;;;;19.13;10.80;;;;;;;-7.36;66.11;101680.03;1696509;81;21828;-95
2020/12/08 07:49:11;;;;;;;16.57;10.97;;;;;;;-7.35;66.14;101670.89;1740034;79;21162;-92
2020/12/08 07:52:21;;;;;;;18.17;10.67;;;;;;;-7.31;65.96;101694.56;1714399;81;21614;-89
2020/12/08 07:54:49;;;;;;;18.83;11.43;;;;;;;-7.31;66.07;101668.66;1730734;81;21202;-91
2020/12/08 07:57:17;;;;;;;17.83;9.63;;;;;;;-7.22;66.26;101670.58;1735566;82;21190;-91
2020/12/08 07:59:48;;;;;;;17.87;10.27;;;;;;;-7.17;65.80;101676.50;1731875;81;21416;-88
2020/12/08 08:02:15;;;;;;;21.13;11.83;;;;;;;-7.23;65.87;101677.52;1722174;81;21175;-88
2020/12/08 08:04:45;;;;;;;17.03;10.33;;;;;;;-7.17;66.13;101677.80;1717432;82;22352;-90
2020/12/08 08:07:19;;;;;;;15.87;8.73;;;;;;;-7.19;65.83;101666.16;1735083;80;21134;-86
2020/12/08 08:09:50;;;;;;;24.47;10.13;;;;;;;-7.23;65.93;101667.15;1743095;80;21172;-88
2020/12/08 08:12:23;;;;;;;18.27;11.50;;;;;;;-7.21;66.04;101661.48;1748087;81;21214;-90
2020/12/08 08:14:55;;;;;;;16.20;9.67;;;;;;;-7.15;66.25;101653.98;1734131;80;21205;-88
2020/12/08 08:17:23;;;;;;;17.47;10.77;;;;;;;-7.03;66.24;101648.44;1745837;81;21129;-87
2020/12/08 08:19:56;;;;;;;18.47;11.03;;;;;;;-6.99;66.54;101659.11;1737644;80;21148;-89
2020/12/08 08:22:26;;;;;;;21.20;11.77;;;;;;;-6.95;66.22;101659.88;1734658;81;21429;-88
2020/12/08 08:24:57;;;;;;;18.47;9.67;;;;;;;-6.88;66.21;101657.52;1745646;80;21156;-88
2020/12/08 08:27:26;;;;;;;17.50;11.27;;;;;;;-6.75;66.05;101669.69;1751986;80;21159;-87
2020/12/08 08:29:58;;;;;;;22.17;11.73;;;;;;;-6.66;65.38;101666.38;1745063;80;21185;-86
2020/12/08 08:32:26;;;;;;;22.53;9.60;;;;;;;-6.57;65.33;101658.78;1740767;80;21297;-86
2020/12/08 08:34:55;;;;;;;19.20;10.20;;;;;;;-6.50;65.38;101669.80;1738586;80;21176;-88
2020/12/08 08:37:33;;;;;;;18.60;10.37;;;;;;;-6.43;64.55;101664.84;1723016;82;21231;-88
2020/12/08 08:40:03;;;;;;;25.17;11.73;;;;;;;-6.44;64.47;101654.08;1740131;80;21185;-88
2020/12/08 08:42:36;;;;;;;16.83;11.73;;;;;;;-6.39;64.16;101647.44;1748116;80;21173;-88
2020/12/08 08:45:14;;;;;;;16.35;10.18;;;;;;;-6.37;64.25;101663.80;1728930;81;21177;-89
2020/12/08 08:48:09;;;;;;;12.00;7.47;;;;;;;-6.38;64.41;101652.58;1747022;80;21170;-90
2020/12/08 08:50:40;;;;;;;18.80;9.67;;;;;;;-6.44;63.86;101639.80;1743173;80;21847;-88
2020/12/08 08:53:11;;;;;;;16.50;9.57;;;;;;;-6.45;64.33;101656.25;1742853;80;21217;-89
2020/12/08 08:55:41;;;;;;;22.00;8.70;;;;;;;-6.44;64.49;101657.09;1730287;80;21338;-88
2020/12/08 08:58:27;;;;;;;18.00;8.77;;;;;;;-6.33;63.89;101625.17;1807554;79;23365;-88
2020/12/08 09:00:57;;;;;;;13.00;8.37;;;;;;;-6.45;64.31;101636.80;1822700;78;21287;-87
2020/12/08 09:03:26;;;;;;;14.23;9.87;;;;;;;-6.40;64.19;101630.16;1803577;78;21227;-88
2020/12/08 09:05:56;;;;;;;17.83;9.00;;;;;;;-6.49;64.59;101634.74;1773032;80;21123;-88
2020/12/08 09:08:31;;;;;;;12.73;7.70;;;;;;;-6.59;64.57;101632.05;1716966;81;21290;-89
2020/12/08 09:10:58;;;;;;;16.53;8.63;;;;;;;-6.57;64.74;101624.19;1753162;80;21805;-90
2020/12/08 09:13:34;;;;;;;22.87;11.17;;;;;;;-6.60;65.17;101631.62;1734296;81;21181;-90
2020/12/08 09:16:06;;;;;;;22.07;10.93;;;;;;;-6.50;65.32;101630.47;1764611;80;21248;-89
2020/12/08 09:18:37;;;;;;;12.77;8.13;;;;;;;-6.40;65.02;101634.92;1764311;79;21147;-89
2020/12/08 09:21:09;;;;;;;19.60;10.53;;;;;;;-6.30;64.19;101626.39;1756077;79;21306;-89
2020/12/08 09:23:37;;;;;;;12.97;9.03;;;;;;;-6.26;64.05;101617.15;1727109;82;21355;-90
2020/12/08 09:26:13;;;;;;;15.53;8.90;;;;;;;-6.26;64.01;101631.42;1737591;80;21617;-88
2020/12/08 09:28:49;;;;;;;14.50;8.33;;;;;;;-6.17;63.96;101622.50;1774607;77;23386;-90
2020/12/08 09:31:19;;;;;;;14.23;7.93;;;;;;;-6.19;63.83;101616.52;1713913;82;21228;-89
2020/12/08 09:33:57;;;;;;;21.83;10.63;;;;;;;-6.13;63.52;101625.39;1692408;83;21176;-88
2020/12/08 09:36:29;;;;;;;15.10;8.10;;;;;;;-6.08;63.40;101623.97;1674250;83;21256;-89
2020/12/08 09:38:57;;;;;;;16.90;11.03;;;;;;;-6.14;62.77;101637.12;1630855;86;21609;-90
2020/12/08 09:41:27;;;;;;;16.40;10.30;;;;;;;-6.14;62.94;101622.42;1625952;87;21171;-88
2020/12/08 09:43:55;;;;;;;15.90;9.47;;;;;;;-6.16;63.05;101625.52;1626016;87;21360;-90
2020/12/08 09:46:24;;;;;;;13.33;8.27;;;;;;;-6.09;63.13;101632.64;1637396;87;21141;-88
2020/12/08 09:48:54;;;;;;;18.50;8.90;;;;;;;-6.11;62.73;101645.66;1636622;87;21851;-87
2020/12/08 09:51:26;;;;;;;16.97;9.33;;;;;;;-6.13;62.92;101619.36;1640732;86;21209;-89
2020/12/08 09:54:00;;;;;;;18.03;10.43;;;;;;;-6.07;63.27;101620.45;1612039;87;21220;-92
2020/12/08 09:56:29;;;;;;;19.17;10.87;;;;;;;-5.99;63.05;101640.55;1639799;86;21356;-90
2020/12/08 09:59:06;;;;;;;22.17;11.80;;;;;;;-5.93;62.61;101620.83;1594830;86;21367;-85
2020/12/08 10:01:37;;;;;;;16.73;10.67;;;;;;;-5.83;62.62;101627.86;1639116;86;21219;-90
2020/12/08 10:04:06;;;;;;;17.17;10.70;;;;;;;-5.77;62.20;101621.15;1631690;86;21188;-90
2020/12/08 10:06:37;;;;;;;19.57;9.17;;;;;;;-5.75;62.32;101623.70;1597576;87;21285;-91
2020/12/08 10:09:06;;;;;;;17.40;10.20;;;;;;;-5.85;62.70;101625.77;1642180;86;21334;-90
2020/12/08 10:11:35;;;;;;;19.90;11.97;;;;;;;-5.89;63.14;101622.42;1615974;87;21724;-88
2020/12/08 10:14:04;;;;;;;21.77;12.93;;;;;;;-5.88;63.13;101633.22;1598737;88;21293;-89
2020/12/08 10:16:32;;;;;;;17.83;10.93;;;;;;;-5.85;63.38;101630.95;1620064;87;21362;-89
2020/12/08 10:19:01;;;;;;;20.70;10.83;;;;;;;-5.83;63.09;101622.66;1618562;87;21273;-89
2020/12/08 10:21:29;;;;;;;24.53;10.47;;;;;;;-5.78;63.36;101625.09;1638660;87;21196;-90
2020/12/08 10:24:03;;;;;;;20.77;10.60;;;;;;;-5.70;63.64;101625.24;1641672;86;21322;-87
2020/12/08 10:26:31;;;;;;;14.43;9.97;;;;;;;-5.59;63.23;101611.05;1646938;87;21200;-89
2020/12/08 10:29:03;;;;;;;18.77;11.57;;;;;;;-5.52;63.13;101633.30;1635594;87;21155;-89
2020/12/08 10:31:32;;;;;;;21.67;13.33;;;;;;;-5.42;63.00;101614.36;1640131;87;21229;-87
2020/12/08 10:34:02;;;;;;;16.60;9.40;;;;;;;-5.40;62.80;101620.34;1653875;86;21210;-87
2020/12/08 10:36:40;;;;;;;17.53;11.17;;;;;;;-5.41;62.66;101616.87;1625753;86;21525;-88
2020/12/08 10:39:13;;;;;;;20.10;10.33;;;;;;;-5.47;62.60;101609.30;1615517;87;21199;-88
2020/12/08 10:42:13;;;;;;;14.03;7.80;;;;;;;-5.50;62.85;101598.58;1782378;79;22687;-90
2020/12/08 10:44:44;;;;;;;14.63;8.30;;;;;;;-5.59;62.55;101622.74;1761303;79;21181;-90
2020/12/08 10:47:12;;;;;;;25.53;12.03;;;;;;;-5.67;62.83;101599.59;1758365;80;21242;-90
2020/12/08 10:49:43;;;;;;;24.33;12.13;;;;;;;-5.66;63.48;101592.22;1745248;80;22350;-92
2020/12/08 10:52:13;;;;;;;16.07;10.70;;;;;;;-5.63;63.53;101625.02;1743305;81;21181;-89
2020/12/08 10:54:45;;;;;;;18.80;9.67;;;;;;;-5.89;62.94;101563.99;1747054;80;21218;-88
2020/12/08 10:57:13;;;;;;;21.37;12.10;;;;;;;-5.76;63.65;101601.24;1753514;81;21180;-90
2020/12/08 10:59:43;;;;;;;19.77;10.93;;;;;;;-5.81;64.27;101599.24;1737414;81;21213;-89
2020/12/08 11:02:12;;;;;;;17.10;10.10;;;;;;;-5.73;64.66;101612.80;1745695;81;21295;-89
2020/12/08 11:04:41;;;;;;;14.83;8.60;;;;;;;-5.71;64.91;101603.20;1731761;81;21635;-88
2020/12/08 11:07:11;;;;;;;20.87;10.80;;;;;;;-5.69;64.93;101589.29;1693141;81;21141;-87
2020/12/08 11:10:11;;;;;;;;;;;;;;;;;;;;;
2020/12/08 11:12:56;;;;;;;18.77;11.57;;;;;;;-5.56;64.23;101594.03;1788776;78;28870;-89
2020/12/08 11:15:34;;;;;;;20.80;11.50;;;;;;;-5.54;64.05;101598.30;1800914;78;21309;-88
2020/12/08 11:18:03;;;;;;;18.27;9.97;;;;;;;-5.48;64.28;101596.77;1804895;78;21866;-87
2020/12/08 11:21:04;;;;;;;;;;;;;;;;;;;;;
2020/12/08 11:28:41;;;;;;;;;;;;;;;;;;;;;
2020/12/08 11:52:53;;;;;;;22.67;12.43;;;;;;;-5.47;64.94;101591.12;1716196;82;23108;-92
2020/12/08 11:55:46;;;;;;;22.87;15.30;;;;;;;-5.43;64.75;101591.40;1759138;79;28326;-92
2020/12/08 11:59:02;;;;;;;17.57;11.80;;;;;;;-5.16;64.25;101586.09;1776262;79;21290;-93
2020/12/08 12:01:43;;;;;;;19.47;11.00;;;;;;;-4.94;63.30;101575.75;1826476;75;22517;-92
2020/12/08 12:04:29;;;;;;;19.13;11.30;;;;;;;-5.21;63.82;101589.34;1800138;78;21135;-93
2020/12/08 12:07:00;;;;;;;15.53;9.27;;;;;;;-5.22;63.95;101587.17;1797568;78;21281;-91
2020/12/08 12:09:31;;;;;;;17.73;11.63;;;;;;;-5.26;64.18;101575.66;1767256;78;21645;-93
2020/12/08 12:12:01;;;;;;;20.10;11.50;;;;;;;-5.22;64.08;101578.07;1802102;78;21144;-92
2020/12/08 12:14:50;;;;;;;21.30;12.43;;;;;;;-5.22;64.13;101592.37;1793197;78;21161;-90